createdAt,value
2019-05-12T00:00:18.358Z,6.20
2019-05-12T00:01:18.685Z,6.10
2019-05-12T00:02:17.886Z,6.10
2019-05-12T00:03:18.942Z,5.50
2019-05-12T00:04:18.914Z,5.70
2019-05-12T00:05:18.478Z,5.80
2019-05-12T00:06:17.786Z,6.00
2019-05-12T00:07:18.075Z,5.90
2019-05-12T00:08:18.840Z,6.10
2019-05-12T00:09:18.823Z,5.80
2019-05-12T00:10:17.846Z,6.10
2019-05-12T00:11:17.977Z,5.80
2019-05-12T00:12:18.444Z,6.10
2019-05-12T00:13:19.008Z,6.40
2019-05-12T00:14:17.835Z,7.10
2019-05-12T00:15:19.151Z,6.90
2019-05-12T00:16:17.721Z,6.50
2019-05-12T00:17:18.770Z,7.30
2019-05-12T00:18:18.044Z,6.70
2019-05-12T00:19:24.671Z,6.70
2019-05-12T00:20:18.146Z,6.40
2019-05-12T00:21:17.667Z,6.60
2019-05-12T00:22:18.073Z,6.00
2019-05-12T00:23:24.910Z,6.90
2019-05-12T00:24:18.664Z,6.50
2019-05-12T00:25:18.077Z,6.10
2019-05-12T00:26:18.652Z,6.40
2019-05-12T00:27:17.911Z,6.40
2019-05-12T00:28:17.915Z,5.90
2019-05-12T00:29:18.523Z,6.30
2019-05-12T00:30:18.486Z,6.30
2019-05-12T00:31:18.862Z,6.10
2019-05-12T00:32:17.938Z,6.00
2019-05-12T00:33:17.956Z,5.10
2019-05-12T00:34:18.383Z,6.10
2019-05-12T00:35:18.239Z,5.60
2019-05-12T00:36:18.572Z,6.60
2019-05-12T00:37:18.514Z,6.20
2019-05-12T00:38:17.660Z,6.00
2019-05-12T00:39:19.136Z,5.50
2019-05-12T00:40:19.089Z,5.20
2019-05-12T00:41:18.152Z,5.20
2019-05-12T00:42:18.319Z,5.80
2019-05-12T00:43:18.784Z,4.60
2019-05-12T00:44:18.404Z,4.50
2019-05-12T00:45:18.112Z,4.50
2019-05-12T00:46:18.317Z,4.10
2019-05-12T00:47:18.784Z,4.40
2019-05-12T00:48:17.913Z,3.90
2019-05-12T00:49:18.684Z,4.00
2019-05-12T00:50:18.456Z,3.70
2019-05-12T00:51:23.862Z,3.70
2019-05-12T00:52:18.635Z,3.70
2019-05-12T00:53:18.936Z,3.70
2019-05-12T00:54:17.850Z,3.30
2019-05-12T00:55:18.411Z,3.30
2019-05-12T00:56:17.741Z,2.90
2019-05-12T00:57:18.160Z,3.00
2019-05-12T00:58:19.381Z,2.80
2019-05-12T00:59:18.842Z,3.30
2019-05-12T01:00:17.864Z,3.20
2019-05-12T01:01:18.393Z,3.20
2019-05-12T01:02:18.339Z,3.20
2019-05-12T01:03:18.933Z,3.60
2019-05-12T01:04:17.569Z,3.10
2019-05-12T01:05:17.703Z,3.10
2019-05-12T01:06:17.812Z,3.00
2019-05-12T01:07:18.366Z,3.50
2019-05-12T01:08:18.735Z,2.90
2019-05-12T01:09:17.614Z,3.40
2019-05-12T01:10:17.959Z,2.90
2019-05-12T01:11:17.802Z,3.50
2019-05-12T01:12:18.110Z,2.90
2019-05-12T01:13:18.726Z,3.20
2019-05-12T01:14:18.688Z,2.90
2019-05-12T01:15:17.818Z,3.80
2019-05-12T01:16:18.387Z,3.20
2019-05-12T01:17:17.722Z,3.40
2019-05-12T01:18:18.104Z,3.60
2019-05-12T01:19:18.584Z,3.10
2019-05-12T01:20:17.838Z,3.70
2019-05-12T01:21:18.464Z,4.00
2019-05-12T01:22:18.614Z,3.40
2019-05-12T01:23:23.750Z,3.80
2019-05-12T01:24:18.527Z,3.80
2019-05-12T01:25:17.589Z,3.60
2019-05-12T01:26:17.895Z,3.90
2019-05-12T01:27:18.084Z,3.80
2019-05-12T01:28:18.381Z,3.70
2019-05-12T01:29:17.655Z,3.60
2019-05-12T01:30:18.117Z,3.80
2019-05-12T01:31:18.020Z,3.80
2019-05-12T01:32:18.275Z,4.00
2019-05-12T01:33:18.143Z,3.80
2019-05-12T01:34:18.169Z,3.80
2019-05-12T01:35:18.450Z,4.30
2019-05-12T01:36:18.141Z,4.00
2019-05-12T01:37:18.400Z,4.10
2019-05-12T01:38:18.264Z,3.70
2019-05-12T01:39:18.599Z,4.40
2019-05-12T01:40:18.864Z,3.80
2019-05-12T01:41:18.017Z,4.20
2019-05-12T01:42:18.083Z,4.30
2019-05-12T01:43:18.622Z,4.50
2019-05-12T01:44:18.387Z,4.20
2019-05-12T01:45:18.033Z,4.40
2019-05-12T01:46:18.153Z,4.10
2019-05-12T01:47:18.570Z,4.40
2019-05-12T01:48:18.319Z,3.80
2019-05-12T01:49:18.503Z,4.20
2019-05-12T01:50:17.757Z,4.30
2019-05-12T01:51:17.791Z,4.20
2019-05-12T01:52:17.844Z,3.70
2019-05-12T01:53:18.087Z,4.00
2019-05-12T01:54:18.710Z,4.10
2019-05-12T01:55:23.180Z,4.00
2019-05-12T01:56:18.166Z,3.80
2019-05-12T01:57:18.672Z,3.70
2019-05-12T01:58:19.050Z,3.60
2019-05-12T01:59:18.375Z,4.40
2019-05-12T02:00:18.147Z,3.80
2019-05-12T02:01:18.389Z,4.10
2019-05-12T02:02:17.914Z,4.20
2019-05-12T02:03:17.834Z,4.00
2019-05-12T02:04:18.059Z,4.20
2019-05-12T02:05:18.184Z,4.60
2019-05-12T02:06:18.336Z,4.40
2019-05-12T02:07:18.087Z,3.80
2019-05-12T02:08:18.400Z,4.10
2019-05-12T02:09:18.528Z,4.00
2019-05-12T02:10:18.003Z,4.20
2019-05-12T02:11:18.307Z,4.10
2019-05-12T02:12:18.161Z,4.40
2019-05-12T02:13:18.161Z,4.30
2019-05-12T02:14:18.136Z,4.50
2019-05-12T02:15:18.225Z,4.10
2019-05-12T02:16:16.034Z,4.40
2019-05-12T02:17:17.900Z,4.30
2019-05-12T02:18:17.765Z,3.80
2019-05-12T02:19:17.811Z,3.80
2019-05-12T02:20:17.934Z,4.00
2019-05-12T02:21:15.914Z,4.20
2019-05-12T02:22:15.895Z,4.20
2019-05-12T02:23:17.826Z,4.00
2019-05-12T02:24:24.323Z,4.40
2019-05-12T02:25:18.474Z,4.30
2019-05-12T02:26:15.892Z,4.70
2019-05-12T02:27:23.719Z,4.30
2019-05-12T02:28:17.950Z,4.80
2019-05-12T02:29:18.154Z,4.70
2019-05-12T02:30:19.739Z,4.90
2019-05-12T02:31:15.804Z,5.00
2019-05-12T02:32:15.838Z,4.50
2019-05-12T02:33:16.183Z,5.00
2019-05-12T02:34:16.083Z,4.70
2019-05-12T02:35:16.288Z,4.90
2019-05-12T02:36:15.754Z,5.10
2019-05-12T02:37:15.732Z,4.60
2019-05-12T02:38:15.730Z,5.00
2019-05-12T02:39:15.761Z,5.10
2019-05-12T02:40:15.698Z,5.20
2019-05-12T02:41:15.847Z,4.90
2019-05-12T02:42:15.813Z,4.90
2019-05-12T02:43:15.758Z,5.20
2019-05-12T02:44:15.709Z,5.20
2019-05-12T02:45:15.770Z,4.90
2019-05-12T02:46:15.931Z,4.80
2019-05-12T02:47:16.226Z,4.50
2019-05-12T02:48:15.616Z,5.30
2019-05-12T02:49:15.950Z,5.10
2019-05-12T02:50:15.699Z,5.30
2019-05-12T02:51:15.893Z,4.70
2019-05-12T02:52:15.597Z,4.90
2019-05-12T02:53:15.578Z,4.70
2019-05-12T02:54:15.561Z,4.70
2019-05-12T02:55:15.539Z,5.10
2019-05-12T02:56:15.567Z,5.00
2019-05-12T02:57:15.522Z,5.10
2019-05-12T02:58:15.550Z,5.40
2019-05-12T02:59:25.283Z,5.30
2019-05-12T03:00:16.237Z,5.60
2019-05-12T03:01:15.473Z,4.90
2019-05-12T03:02:15.467Z,5.30
2019-05-12T03:03:15.493Z,5.10
2019-05-12T03:04:15.458Z,5.60
2019-05-12T03:05:15.431Z,5.90
2019-05-12T03:06:15.416Z,5.60
2019-05-12T03:07:15.622Z,5.50
2019-05-12T03:08:15.634Z,5.80
2019-05-12T03:09:15.407Z,5.70
2019-05-12T03:10:15.528Z,5.90
2019-05-12T03:11:15.363Z,5.40
2019-05-12T03:12:15.366Z,5.70
2019-05-12T03:13:15.400Z,5.50
2019-05-12T03:14:15.952Z,5.50
2019-05-12T03:15:15.415Z,5.20
2019-05-12T03:16:15.313Z,5.40
2019-05-12T03:17:15.458Z,5.40
2019-05-12T03:18:15.290Z,5.90
2019-05-12T03:19:15.359Z,5.80
2019-05-12T03:20:15.703Z,5.70
2019-05-12T03:21:15.465Z,6.00
2019-05-12T03:22:15.244Z,5.90
2019-05-12T03:23:18.987Z,5.70
2019-05-12T03:24:17.568Z,5.60
2019-05-12T03:25:23.893Z,6.30
2019-05-12T03:26:16.199Z,6.00
2019-05-12T03:27:17.813Z,6.00
2019-05-12T03:28:16.110Z,5.70
2019-05-12T03:29:15.165Z,5.90
2019-05-12T03:30:19.402Z,5.20
2019-05-12T03:31:29.888Z,5.80
2019-05-12T03:32:17.699Z,5.30
2019-05-12T03:33:19.102Z,6.00
2019-05-12T03:34:19.729Z,5.50
2019-05-12T03:35:17.910Z,5.70
2019-05-12T03:36:18.038Z,4.60
2019-05-12T03:37:17.601Z,5.30
2019-05-12T03:38:15.181Z,5.40
2019-05-12T03:39:15.255Z,5.30
2019-05-12T03:40:15.045Z,4.80
2019-05-12T03:41:15.089Z,5.90
2019-05-12T03:42:15.150Z,4.90
2019-05-12T03:43:15.073Z,5.50
2019-05-12T03:44:15.443Z,5.40
2019-05-12T03:45:15.198Z,6.60
2019-05-12T03:46:15.427Z,5.60
2019-05-12T03:47:14.980Z,5.90
2019-05-12T03:48:15.371Z,5.30
2019-05-12T03:49:15.540Z,5.90
2019-05-12T03:50:15.816Z,5.80
2019-05-12T03:51:15.569Z,6.30
2019-05-12T03:52:15.442Z,5.80
2019-05-12T03:53:15.833Z,6.30
2019-05-12T03:54:15.377Z,6.00
2019-05-12T03:55:30.749Z,6.10
2019-05-12T03:56:15.876Z,5.60
2019-05-12T03:57:15.265Z,6.50
2019-05-12T03:58:15.469Z,5.90
2019-05-12T03:59:15.357Z,6.50
2019-05-12T04:00:15.913Z,5.90
2019-05-12T04:01:15.301Z,6.00
2019-05-12T04:02:15.164Z,6.30
2019-05-12T04:03:24.712Z,6.30
2019-05-12T04:04:15.406Z,6.30
2019-05-12T04:05:15.792Z,7.10
2019-05-12T04:06:15.647Z,6.40
2019-05-12T04:07:15.437Z,6.20
2019-05-12T04:08:15.842Z,6.40
2019-05-12T04:09:15.790Z,6.30
2019-05-12T04:10:15.970Z,6.20
2019-05-12T04:11:14.867Z,7.00
2019-05-12T04:12:15.057Z,6.60
2019-05-12T04:13:15.271Z,6.80
2019-05-12T04:14:15.121Z,6.80
2019-05-12T04:15:15.401Z,6.90
2019-05-12T04:16:16.453Z,6.90
2019-05-12T04:17:15.078Z,7.00
2019-05-12T04:18:15.996Z,6.30
2019-05-12T04:19:15.064Z,7.40
2019-05-12T04:20:15.434Z,7.30
2019-05-12T04:21:15.634Z,7.10
2019-05-12T04:22:15.458Z,7.20
2019-05-12T04:23:15.622Z,7.50
2019-05-12T04:24:14.679Z,7.00
2019-05-12T04:25:14.936Z,6.90
2019-05-12T04:26:16.984Z,7.20
2019-05-12T04:27:15.227Z,7.60
2019-05-12T04:28:15.192Z,7.20
2019-05-12T04:29:15.423Z,7.80
2019-05-12T04:30:14.835Z,7.60
2019-05-12T04:31:15.414Z,6.80
2019-05-12T04:32:14.639Z,6.80
2019-05-12T04:33:15.499Z,7.00
2019-05-12T04:34:18.693Z,7.00
2019-05-12T04:35:21.443Z,6.50
2019-05-12T04:36:15.042Z,6.50
2019-05-12T04:37:14.956Z,7.00
2019-05-12T04:38:15.192Z,6.30
2019-05-12T04:39:14.896Z,6.50
2019-05-12T04:40:15.100Z,6.40
2019-05-12T04:41:14.766Z,7.20
2019-05-12T04:42:14.975Z,6.70
2019-05-12T04:43:14.845Z,6.80
2019-05-12T04:44:15.512Z,6.60
2019-05-12T04:45:15.741Z,6.90
2019-05-12T04:46:14.732Z,6.60
2019-05-12T04:47:14.682Z,7.40
2019-05-12T04:48:15.665Z,6.90
2019-05-12T04:49:15.690Z,6.90
2019-05-12T04:50:15.700Z,6.90
2019-05-12T04:51:15.351Z,7.40
2019-05-12T04:52:15.534Z,7.20
2019-05-12T04:53:14.654Z,7.20
2019-05-12T04:54:15.385Z,7.20
2019-05-12T04:55:15.203Z,7.00
2019-05-12T04:56:19.114Z,7.50
2019-05-12T04:57:15.220Z,7.10
2019-05-12T04:58:15.844Z,7.90
2019-05-12T04:59:15.617Z,7.20
2019-05-12T05:00:15.781Z,8.10
2019-05-12T05:01:15.596Z,7.50
2019-05-12T05:02:15.307Z,8.40
2019-05-12T05:03:14.532Z,8.10
2019-05-12T05:04:15.529Z,8.70
2019-05-12T05:05:14.624Z,8.90
2019-05-12T05:06:15.015Z,9.40
2019-05-12T05:07:24.191Z,9.10
2019-05-12T05:08:19.182Z,10.00
2019-05-12T05:09:15.084Z,9.50
2019-05-12T05:10:14.676Z,10.00
2019-05-12T05:11:14.924Z,9.80
2019-05-12T05:12:14.146Z,9.70
2019-05-12T05:13:14.963Z,9.80
2019-05-12T05:14:14.507Z,10.40
2019-05-12T05:15:14.773Z,9.90
2019-05-12T05:16:14.528Z,11.40
2019-05-12T05:17:15.050Z,11.20
2019-05-12T05:18:14.003Z,12.40
2019-05-12T05:19:14.043Z,11.60
2019-05-12T05:20:13.970Z,11.50
2019-05-12T05:21:14.114Z,12.20
2019-05-12T05:22:13.994Z,12.10
2019-05-12T05:23:14.388Z,12.00
2019-05-12T05:24:14.322Z,12.50
2019-05-12T05:25:14.560Z,12.20
2019-05-12T05:26:22.123Z,12.50
2019-05-12T05:27:14.887Z,12.50
2019-05-12T05:28:14.744Z,12.10
2019-05-12T05:29:13.869Z,11.40
2019-05-12T05:30:14.036Z,12.20
2019-05-12T05:31:14.106Z,12.70
2019-05-12T05:32:14.118Z,12.40
2019-05-12T05:33:14.679Z,11.80
2019-05-12T05:34:14.827Z,12.20
2019-05-12T05:35:13.881Z,13.90
2019-05-12T05:36:19.466Z,11.90
2019-05-12T05:37:14.777Z,12.70
2019-05-12T05:38:19.210Z,12.10
2019-05-12T05:40:04.160Z,12.60
2019-05-12T05:41:06.075Z,13.00
2019-05-12T05:42:05.063Z,14.00
2019-05-12T05:43:12.621Z,12.50
2019-05-12T05:44:05.040Z,13.00
2019-05-12T05:45:04.869Z,12.50
2019-05-12T05:46:07.901Z,13.10
2019-05-12T05:47:04.421Z,12.80
2019-05-12T05:48:05.469Z,13.30
2019-05-12T05:49:05.005Z,12.60
2019-05-12T05:50:04.734Z,13.10
2019-05-12T05:51:05.709Z,13.20
2019-05-12T05:52:03.950Z,13.10
2019-05-12T05:53:04.334Z,13.00
2019-05-12T05:54:04.151Z,12.50
2019-05-12T05:55:05.937Z,11.40
2019-05-12T05:56:04.917Z,13.80
2019-05-12T05:57:06.100Z,12.90
2019-05-12T05:58:08.561Z,12.60
2019-05-12T05:59:04.924Z,12.40
2019-05-12T06:00:07.242Z,12.20
2019-05-12T06:01:08.020Z,12.70
2019-05-12T06:02:04.964Z,13.90
2019-05-12T06:03:05.381Z,13.30
2019-05-12T06:04:08.353Z,12.90
2019-05-12T06:05:04.501Z,12.80
2019-05-12T06:06:10.320Z,13.00
2019-05-12T06:07:04.795Z,13.80
2019-05-12T06:08:04.272Z,12.90
2019-05-12T06:09:03.805Z,12.60
2019-05-12T06:10:04.155Z,12.30
2019-05-12T06:11:04.809Z,12.70
2019-05-12T06:12:10.712Z,13.50
2019-05-12T06:13:04.197Z,13.50
2019-05-12T06:14:11.288Z,12.60
2019-05-12T06:15:04.703Z,13.70
2019-05-12T06:16:04.444Z,12.40
2019-05-12T06:17:04.326Z,13.50
2019-05-12T06:18:03.995Z,12.40
2019-05-12T06:19:03.720Z,12.40
2019-05-12T06:20:04.398Z,13.70
2019-05-12T06:21:03.674Z,12.30
2019-05-12T06:22:04.045Z,13.50
2019-05-12T06:23:04.431Z,12.60
2019-05-12T06:24:03.771Z,12.90
2019-05-12T06:25:04.843Z,12.70
2019-05-12T06:26:04.664Z,13.40
2019-05-12T06:27:14.292Z,12.90
2019-05-12T06:28:08.038Z,12.70
2019-05-12T06:29:04.500Z,13.90
2019-05-12T06:30:06.351Z,13.80
2019-05-12T06:31:04.228Z,13.20
2019-05-12T06:32:06.410Z,13.00
2019-05-12T06:33:04.520Z,13.10
2019-05-12T06:34:05.961Z,12.70
2019-05-12T06:35:04.735Z,13.60
2019-05-12T06:36:06.969Z,13.00
2019-05-12T06:37:11.872Z,13.70
2019-05-12T06:38:05.234Z,13.80
2019-05-12T06:39:04.374Z,13.50
2019-05-12T06:40:03.715Z,13.50
2019-05-12T06:41:03.651Z,13.80
2019-05-12T06:42:12.769Z,14.10
2019-05-12T06:43:04.716Z,12.30
2019-05-12T06:44:17.195Z,13.60
2019-05-12T06:45:04.380Z,13.30
2019-05-12T06:46:03.717Z,13.70
2019-05-12T06:47:07.948Z,13.50
2019-05-12T06:48:04.356Z,12.60
2019-05-12T06:49:11.854Z,13.40
2019-05-12T06:50:04.328Z,13.60
2019-05-12T06:51:04.050Z,13.10
2019-05-12T06:52:07.110Z,13.60
2019-05-12T06:53:05.012Z,14.50
2019-05-12T06:54:07.255Z,13.30
2019-05-12T06:55:04.281Z,14.40
2019-05-12T06:56:04.503Z,12.90
2019-05-12T06:57:18.710Z,14.30
2019-05-12T06:58:04.650Z,12.90
2019-05-12T06:59:09.744Z,13.10
2019-05-12T07:00:04.713Z,14.00
2019-05-12T07:01:10.268Z,13.80
2019-05-12T07:02:04.205Z,13.60
2019-05-12T07:03:04.048Z,13.50
2019-05-12T07:04:08.270Z,14.40
2019-05-12T07:05:04.520Z,13.50
2019-05-12T07:06:04.104Z,12.90
2019-05-12T07:07:03.664Z,12.90
2019-05-12T07:08:04.187Z,13.50
2019-05-12T07:09:09.219Z,12.70
2019-05-12T07:10:11.757Z,12.50
2019-05-12T07:11:06.093Z,13.30
2019-05-12T07:12:07.000Z,12.90
2019-05-12T07:13:05.729Z,13.70
2019-05-12T07:14:08.024Z,13.20
2019-05-12T07:15:04.141Z,13.80
2019-05-12T07:16:15.228Z,13.10
2019-05-12T07:17:05.947Z,14.10
2019-05-12T07:18:04.254Z,13.90
2019-05-12T07:19:09.657Z,13.20
2019-05-12T07:20:04.073Z,14.10
2019-05-12T07:21:04.117Z,13.00
2019-05-12T07:22:03.606Z,13.60
2019-05-12T07:23:04.202Z,13.50
2019-05-12T07:24:06.654Z,13.30
2019-05-12T07:25:04.486Z,13.10
2019-05-12T07:26:05.085Z,12.90
2019-05-12T07:27:08.986Z,12.80
2019-05-12T07:28:07.642Z,12.50
2019-05-12T07:29:04.485Z,13.00
2019-05-12T07:30:04.759Z,12.40
2019-05-12T07:31:03.888Z,12.70
2019-05-12T07:32:07.185Z,13.60
2019-05-12T07:33:04.582Z,13.40
2019-05-12T07:34:07.188Z,13.40
2019-05-12T07:35:03.930Z,13.20
2019-05-12T07:36:06.356Z,12.50
2019-05-12T07:37:04.381Z,12.70
2019-05-12T07:38:04.633Z,12.90
2019-05-12T07:39:05.362Z,12.10
2019-05-12T07:40:04.839Z,13.10
2019-05-12T07:41:06.760Z,13.30
2019-05-12T07:42:03.796Z,13.40
2019-05-12T07:43:04.021Z,13.30
2019-05-12T07:44:03.613Z,13.10
2019-05-12T07:45:03.920Z,13.20
2019-05-12T07:46:06.934Z,13.00
2019-05-12T07:47:03.613Z,12.90
2019-05-12T07:48:10.443Z,13.90
2019-05-12T07:49:03.887Z,14.10
2019-05-12T07:50:04.488Z,14.30
2019-05-12T07:51:04.142Z,14.40
2019-05-12T07:52:03.598Z,13.60
2019-05-12T07:53:04.123Z,14.80
2019-05-12T07:54:04.092Z,13.10
2019-05-12T07:55:04.313Z,13.80
2019-05-12T07:56:04.110Z,14.40
2019-05-12T07:57:11.123Z,15.10
2019-05-12T07:58:12.655Z,14.80
2019-05-12T07:59:04.378Z,16.00
2019-05-12T08:00:03.578Z,14.60
2019-05-12T08:01:05.145Z,15.30
2019-05-12T08:02:03.991Z,14.70
2019-05-12T08:03:08.125Z,15.70
2019-05-12T08:04:04.495Z,15.20
2019-05-12T08:05:03.861Z,15.50
2019-05-12T08:06:04.614Z,16.00
2019-05-12T08:07:03.935Z,15.70
2019-05-12T08:08:06.956Z,15.80
2019-05-12T08:09:04.151Z,14.80
2019-05-12T08:10:07.330Z,14.10
2019-05-12T08:11:04.416Z,15.50
2019-05-12T08:12:03.982Z,15.80
2019-05-12T08:13:04.523Z,15.20
2019-05-12T08:14:03.603Z,15.90
2019-05-12T08:15:07.806Z,15.30
2019-05-12T08:16:03.772Z,16.10
2019-05-12T08:17:11.191Z,15.40
2019-05-12T08:18:07.375Z,16.40
2019-05-12T08:19:04.022Z,17.50
2019-05-12T08:20:13.307Z,16.30
2019-05-12T08:21:03.792Z,14.60
2019-05-12T08:22:04.342Z,17.00
2019-05-12T08:23:05.755Z,15.90
2019-05-12T08:24:03.777Z,16.00
2019-05-12T08:25:04.229Z,15.60
2019-05-12T08:26:03.701Z,16.00
2019-05-12T08:27:06.537Z,16.30
2019-05-12T08:28:14.113Z,15.50
2019-05-12T08:29:04.280Z,15.70
2019-05-12T08:30:05.511Z,15.00
2019-05-12T08:31:03.647Z,17.00
2019-05-12T08:32:03.773Z,16.80
2019-05-12T08:33:08.956Z,15.70
2019-05-12T08:34:04.269Z,15.50
2019-05-12T08:35:04.868Z,14.80
2019-05-12T08:36:05.499Z,15.60
2019-05-12T08:37:04.417Z,15.70
2019-05-12T08:38:03.884Z,14.60
2019-05-12T08:39:05.892Z,15.90
2019-05-12T08:40:04.261Z,15.40
2019-05-12T08:41:04.195Z,16.20
2019-05-12T08:42:04.025Z,15.90
2019-05-12T08:43:07.940Z,15.20
2019-05-12T08:44:04.594Z,16.00
2019-05-12T08:45:04.174Z,15.20
2019-05-12T08:46:09.952Z,16.70
2019-05-12T08:47:03.920Z,15.50
2019-05-12T08:48:03.841Z,15.80
2019-05-12T08:49:03.053Z,15.30
2019-05-12T08:50:04.538Z,15.00
2019-05-12T08:51:05.274Z,15.10
2019-05-12T08:53:20.326Z,14.80
2019-05-12T08:54:14.196Z,14.50
2019-05-12T08:55:14.696Z,15.20
2019-05-12T08:56:17.105Z,14.10
2019-05-12T08:57:14.296Z,15.40
2019-05-12T08:58:29.136Z,14.60
2019-05-12T08:59:15.552Z,14.60
2019-05-12T09:00:13.465Z,14.20
2019-05-12T09:01:13.643Z,13.70
2019-05-12T09:02:14.014Z,14.20
2019-05-12T09:03:13.933Z,13.80
2019-05-12T09:04:17.321Z,13.80
2019-05-12T09:05:14.416Z,12.00
2019-05-12T09:06:15.573Z,13.30
2019-05-12T09:07:13.836Z,13.20
2019-05-12T09:08:13.661Z,13.70
2019-05-12T09:09:13.834Z,13.20
2019-05-12T09:10:11.595Z,13.20
2019-05-12T09:11:13.783Z,12.70
2019-05-12T09:12:13.861Z,12.80
2019-05-12T09:13:11.553Z,12.90
2019-05-12T09:14:11.548Z,13.40
2019-05-12T09:15:13.587Z,13.30
2019-05-12T09:16:13.648Z,13.30
2019-05-12T09:17:13.524Z,13.10
2019-05-12T09:18:11.508Z,13.50
2019-05-12T09:19:16.616Z,13.00
2019-05-12T09:20:13.799Z,13.40
2019-05-12T09:21:13.876Z,13.80
2019-05-12T09:22:16.806Z,13.80
2019-05-12T09:23:13.635Z,13.60
2019-05-12T09:24:13.640Z,13.40
2019-05-12T09:25:18.914Z,14.80
2019-05-12T09:26:13.545Z,13.70
2019-05-12T09:27:13.476Z,14.60
2019-05-12T09:28:13.597Z,14.70
2019-05-12T09:29:11.379Z,14.20
2019-05-12T09:30:11.377Z,15.00
2019-05-12T09:31:11.371Z,14.40
2019-05-12T09:32:11.402Z,15.10
2019-05-12T09:33:11.341Z,16.50
2019-05-12T09:34:13.562Z,15.40
2019-05-12T09:35:11.323Z,15.60
2019-05-12T09:36:19.543Z,15.50
2019-05-12T09:37:14.246Z,14.50
2019-05-12T09:38:20.854Z,16.30
2019-05-12T09:39:14.203Z,15.10
2019-05-12T09:40:11.276Z,14.90
2019-05-12T09:41:13.753Z,15.60
2019-05-12T09:42:11.292Z,16.10
2019-05-12T09:43:13.459Z,16.30
2019-05-12T09:44:13.225Z,14.80
2019-05-12T09:45:11.250Z,15.50
2019-05-12T09:46:11.204Z,15.80
2019-05-12T09:47:21.986Z,15.70
2019-05-12T09:48:14.055Z,16.10
2019-05-12T09:49:11.164Z,15.70
2019-05-12T09:50:18.319Z,16.10
2019-05-12T09:51:13.341Z,16.10
2019-05-12T09:52:13.890Z,16.00
2019-05-12T09:53:14.178Z,16.90
2019-05-12T09:54:11.286Z,15.50
2019-05-12T09:55:11.109Z,16.00
2019-05-12T09:56:11.094Z,15.80
2019-05-12T09:57:21.005Z,17.60
2019-05-12T09:58:14.064Z,16.10
2019-05-12T09:59:19.055Z,16.70
2019-05-12T10:00:13.693Z,16.80
2019-05-12T10:01:11.036Z,16.40
2019-05-12T10:02:16.542Z,16.00
2019-05-12T10:03:13.863Z,16.20
2019-05-12T10:04:16.349Z,15.70
2019-05-12T10:05:14.223Z,16.30
2019-05-12T10:06:11.449Z,15.20
2019-05-12T10:07:14.000Z,15.50
2019-05-12T10:08:13.228Z,15.70
2019-05-12T10:09:15.646Z,17.10
2019-05-12T10:10:14.024Z,16.70
2019-05-12T10:11:16.462Z,16.00
2019-05-12T10:12:13.536Z,15.20
2019-05-12T10:13:10.917Z,15.60
2019-05-12T10:14:11.165Z,15.90
2019-05-12T10:15:10.900Z,15.10
2019-05-12T10:16:10.875Z,15.30
2019-05-12T10:17:10.864Z,15.30
2019-05-12T10:18:11.408Z,15.40
2019-05-12T10:19:10.841Z,14.80
2019-05-12T10:20:10.890Z,15.10
2019-05-12T10:21:15.486Z,14.50
2019-05-12T10:22:11.807Z,14.20
2019-05-12T10:23:18.612Z,15.30
2019-05-12T10:24:11.813Z,14.60
2019-05-12T10:25:10.779Z,14.80
2019-05-12T10:26:12.304Z,14.50
2019-05-12T10:27:10.757Z,13.50
2019-05-12T10:28:11.694Z,13.30
2019-05-12T10:29:20.828Z,12.60
2019-05-12T10:30:13.422Z,12.80
2019-05-12T10:31:13.868Z,12.40
2019-05-12T10:32:10.704Z,11.90
2019-05-12T10:33:10.694Z,12.30
2019-05-12T10:34:10.684Z,11.80
2019-05-12T10:35:12.445Z,10.60
2019-05-12T10:36:11.713Z,11.20
2019-05-12T10:37:10.647Z,10.60
2019-05-12T10:38:10.982Z,10.80
2019-05-12T10:39:10.662Z,11.10
2019-05-12T10:40:10.626Z,10.90
2019-05-12T10:41:10.621Z,10.40
2019-05-12T10:42:10.606Z,10.80
2019-05-12T10:43:10.578Z,10.50
2019-05-12T10:44:10.565Z,10.50
2019-05-12T10:45:15.477Z,9.70
2019-05-12T10:46:13.257Z,10.90
2019-05-12T10:47:10.551Z,10.20
2019-05-12T10:48:10.526Z,10.40
2019-05-12T10:49:10.519Z,10.50
2019-05-12T10:50:10.505Z,10.00
2019-05-12T10:51:10.541Z,10.20
2019-05-12T10:52:10.494Z,9.90
2019-05-12T10:53:15.437Z,11.20
2019-05-12T10:54:13.150Z,11.20
2019-05-12T10:55:10.449Z,10.90
2019-05-12T10:56:10.466Z,11.60
2019-05-12T10:57:10.509Z,12.70
2019-05-12T10:58:10.417Z,11.90
2019-05-12T10:59:10.412Z,12.00
2019-05-12T11:00:10.393Z,12.30
2019-05-12T11:01:18.060Z,12.00
2019-05-12T11:02:10.372Z,11.90
2019-05-12T11:03:12.324Z,11.50
2019-05-12T11:04:10.356Z,11.20
2019-05-12T11:05:12.475Z,12.20
2019-05-12T11:06:11.339Z,11.50
2019-05-12T11:07:10.320Z,12.30
2019-05-12T11:08:11.342Z,12.60
2019-05-12T11:09:10.350Z,12.50
2019-05-12T11:10:16.526Z,12.50
2019-05-12T11:11:13.508Z,12.90
2019-05-12T11:12:10.320Z,12.70
2019-05-12T11:13:10.262Z,12.80
2019-05-12T11:14:10.243Z,12.70
2019-05-12T11:15:10.285Z,12.40
2019-05-12T11:16:10.339Z,13.00
2019-05-12T11:17:10.219Z,12.40
2019-05-12T11:18:10.201Z,13.20
2019-05-12T11:19:10.748Z,13.40
2019-05-12T11:20:10.182Z,13.20
2019-05-12T11:21:10.181Z,14.70
2019-05-12T11:22:10.266Z,14.00
2019-05-12T11:23:10.163Z,13.60
2019-05-12T11:24:10.134Z,14.80
2019-05-12T11:25:10.141Z,14.10
2019-05-12T11:26:10.151Z,13.80
2019-05-12T11:27:10.102Z,15.30
2019-05-12T11:28:10.133Z,14.20
2019-05-12T11:29:10.085Z,14.30
2019-05-12T11:30:10.071Z,14.10
2019-05-12T11:31:10.058Z,14.40
2019-05-12T11:32:10.093Z,14.70
2019-05-12T11:33:17.024Z,14.40
2019-05-12T11:34:10.028Z,14.50
2019-05-12T11:35:10.013Z,13.50
2019-05-12T11:36:10.013Z,14.80
2019-05-12T11:37:10.012Z,15.00
2019-05-12T11:38:09.989Z,13.80
2019-05-12T11:39:10.001Z,14.90
2019-05-12T11:40:09.963Z,14.10
2019-05-12T11:41:15.415Z,14.60
2019-05-12T11:42:13.259Z,14.40
2019-05-12T11:43:09.946Z,14.10
2019-05-12T11:44:09.922Z,14.70
2019-05-12T11:45:09.925Z,14.00
2019-05-12T11:46:09.906Z,15.30
2019-05-12T11:47:16.929Z,13.80
2019-05-12T11:48:10.943Z,13.50
2019-05-12T11:49:09.866Z,13.80
2019-05-12T11:50:10.228Z,13.90
2019-05-12T11:51:09.847Z,13.80
2019-05-12T11:52:15.497Z,14.70
2019-05-12T11:53:13.597Z,13.30
2019-05-12T11:54:10.930Z,14.60
2019-05-12T11:55:09.806Z,14.60
2019-05-12T11:56:09.803Z,15.10
2019-05-12T11:57:09.778Z,15.10
2019-05-12T11:58:11.584Z,14.00
2019-05-12T11:59:09.810Z,14.60
2019-05-12T12:00:09.755Z,16.30
2019-05-12T12:01:09.737Z,14.70
2019-05-12T12:02:09.733Z,15.60
2019-05-12T12:03:17.048Z,16.00
2019-05-12T12:04:10.707Z,15.90
2019-05-12T12:05:17.148Z,15.80
2019-05-12T12:06:09.682Z,15.30
2019-05-12T12:07:09.666Z,15.40
2019-05-12T12:08:09.662Z,16.30
2019-05-12T12:09:15.530Z,14.70
2019-05-12T12:10:10.683Z,15.40
2019-05-12T12:11:10.512Z,14.90
2019-05-12T12:12:10.724Z,15.70
2019-05-12T12:13:09.610Z,16.30
2019-05-12T12:14:10.659Z,15.60
2019-05-12T12:15:09.643Z,16.30
2019-05-12T12:16:11.418Z,16.10
2019-05-12T12:17:09.559Z,15.70
2019-05-12T12:18:14.973Z,16.10
2019-05-12T12:19:10.537Z,16.20
2019-05-12T12:20:13.963Z,15.60
2019-05-12T12:21:10.572Z,16.50
2019-05-12T12:22:09.505Z,16.50
2019-05-12T12:23:11.253Z,17.00
2019-05-12T12:24:09.488Z,16.90
2019-05-12T12:25:10.822Z,17.00
2019-05-12T12:26:09.475Z,17.10
2019-05-12T12:27:09.456Z,16.50
2019-05-12T12:28:09.509Z,16.80
2019-05-12T12:29:09.440Z,17.80
2019-05-12T12:30:18.501Z,17.50
2019-05-12T12:31:10.414Z,18.30
2019-05-12T12:32:09.795Z,18.10
2019-05-12T12:33:10.391Z,16.50
2019-05-12T12:34:09.458Z,17.80
2019-05-12T12:35:12.986Z,16.60
2019-05-12T12:36:10.361Z,17.30
2019-05-12T12:37:18.857Z,17.10
2019-05-12T12:38:10.329Z,17.60
2019-05-12T12:39:09.333Z,17.10
2019-05-12T12:40:09.352Z,16.70
2019-05-12T12:41:09.300Z,17.00
2019-05-12T12:42:09.308Z,17.80
2019-05-12T12:43:09.292Z,16.60
2019-05-12T12:44:09.276Z,16.90
2019-05-12T12:45:09.261Z,16.80
2019-05-12T12:46:10.481Z,17.00
2019-05-12T12:47:10.245Z,17.10
2019-05-12T12:48:09.229Z,16.70
2019-05-12T12:49:10.475Z,16.70
2019-05-12T12:50:09.261Z,16.20
2019-05-12T12:51:09.211Z,15.50
2019-05-12T12:52:09.180Z,16.20
2019-05-12T12:53:09.191Z,15.40
2019-05-12T12:54:09.173Z,16.70
2019-05-12T12:55:09.274Z,16.90
2019-05-12T12:56:09.147Z,16.40
2019-05-12T12:57:10.054Z,16.00
2019-05-12T12:58:09.120Z,16.60
2019-05-12T12:59:10.770Z,15.80
2019-05-12T13:00:09.110Z,14.90
2019-05-12T13:01:15.734Z,16.00
2019-05-12T13:02:10.152Z,15.60
2019-05-12T13:03:09.117Z,16.10
2019-05-12T13:04:09.052Z,16.50